Genesis II — EILJ9 — position and weather

sailwx.info

Track history (hours):
 
Tides and Currents Weather Stations Pressure Air Temp Water Temp Dewpoint Dewpoint Depression Visibility Wind Speed Wind Dir Waves Ship Positions

Genesis II

Last reported at 2016-Nov-26 02:30 UTC. Time now 2016-Dec-09 13:35 UTC.
Position N 51°25' W 010°03'.
Warning: this ship's position is 13 days out of date.

Length 53 m; draft 6.6 m.

Type: Fishing. MMSI: 250002424.

Date/timePositionNaut miles runAvg speedWind from/ knotsBaromVisibWave heightAir tempDewpointWater temp
2016-Nov-26 02:30N 51°25' W 010°03'1212.8
2016-Nov-26 01:34N 51°22' W 009°44'1212.3
2016-Nov-26 00:33N 51°23' W 009°25'1312.6
2016-Nov-25 23:34N 51°28' W 009°06'1313.0
2016-Nov-25 22:33N 51°32' W 008°46'1313.0
2016-Nov-25 21:34N 51°37' W 008°27'1212.5
2016-Nov-25 20:33N 51°47' W 008°15'4 0.3
2016-Nov-25 07:21N 51°51' W 008°18'0 0.0
2016-Nov-25 06:33N 51°51' W 008°18'3 3.1
2016-Nov-25 05:33N 51°48' W 008°16'7 6.7
2016-Nov-25 04:33N 51°42' W 008°14'5 5.1
2016-Nov-25 03:33N 51°36' W 008°14'3 3.0
2016-Nov-25 02:33N 51°39' W 008°12'3 2.9
2016-Nov-25 01:33N 51°36' W 008°14'8 7.8
2016-Nov-25 00:33N 51°29' W 008°11'  
2016-Nov-18 01:33N 52°07' W 006°05'1111.2
2016-Nov-18 00:33N 52°18' W 006°00'1010.3
2016-Nov-17 23:33N 52°28' W 005°56'10710.6
2016-Nov-17 13:25N 54°13' W 005°24'910.4
2016-Nov-17 12:33N 54°22' W 005°21'1110.8
2016-Nov-17 11:33N 54°33' W 005°24'4813.9
2016-Nov-17 08:07N 55°14' W 006°06'2012.6
2016-Nov-17 06:33N 55°19' W 006°39'  
Track history (hours):
 
Tides and Currents Weather Stations Pressure Air Temp Water Temp Dewpoint Dewpoint Depression Visibility Wind Speed Wind Dir Waves Ship Positions

Genesis II

Last reported at 2016-Nov-26 02:30 UTC. Time now 2016-Dec-09 13:35 UTC.
Position N 51°25' W 010°03'.
Warning: this ship's position is 13 days out of date.

Length 53 m; draft 6.6 m.

Type: Fishing. MMSI: 250002424.

Date/timePositionNaut miles runAvg speedWind from/ knotsBaromVisibWave heightAir tempDewpointWater temp
2016-Nov-26 02:30N 51°25' W 010°03'1212.8
2016-Nov-26 01:34N 51°22' W 009°44'1212.3
2016-Nov-26 00:33N 51°23' W 009°25'1312.6
2016-Nov-25 23:34N 51°28' W 009°06'1313.0
2016-Nov-25 22:33N 51°32' W 008°46'1313.0
2016-Nov-25 21:34N 51°37' W 008°27'1212.5
2016-Nov-25 20:33N 51°47' W 008°15'4 0.3
2016-Nov-25 07:21N 51°51' W 008°18'0 0.0
2016-Nov-25 06:33N 51°51' W 008°18'3 3.1
2016-Nov-25 05:33N 51°48' W 008°16'7 6.7
2016-Nov-25 04:33N 51°42' W 008°14'5 5.1
2016-Nov-25 03:33N 51°36' W 008°14'3 3.0
2016-Nov-25 02:33N 51°39' W 008°12'3 2.9
2016-Nov-25 01:33N 51°36' W 008°14'8 7.8
2016-Nov-25 00:33N 51°29' W 008°11'  
2016-Nov-18 01:33N 52°07' W 006°05'1111.2
2016-Nov-18 00:33N 52°18' W 006°00'1010.3
2016-Nov-17 23:33N 52°28' W 005°56'10710.6
2016-Nov-17 13:25N 54°13' W 005°24'910.4
2016-Nov-17 12:33N 54°22' W 005°21'1110.8
2016-Nov-17 11:33N 54°33' W 005°24'4813.9
2016-Nov-17 08:07N 55°14' W 006°06'2012.6
2016-Nov-17 06:33N 55°19' W 006°39'  

Dump ship's entire track history